Time;durP1;ratioP1;P1;durP2;ratioP2;P2;SDS_P1;SDS_P2;PMS_P1;PMS_P2;Temp;Humidity;BMP_temperature;BMP_pressure;BME280_temperature;BME280_humidity;BME280_pressure;Samples;Min_cycle;Max_cycle;Signal;HPM_P1;HPM_P2
2023/05/13 00:01:06;;;;;;;13.40;7.22;;;;;;;15.81;73.18;101927.72;5036713;28;20488;-67
2023/05/13 00:03:32;;;;;;;11.60;6.88;;;;;;;15.83;72.93;101929.50;5036915;28;20032;-68
2023/05/13 00:05:57;;;;;;;13.07;7.38;;;;;;;15.81;72.73;101930.38;5036912;28;20033;-68
2023/05/13 00:08:23;;;;;;;9.80;6.95;;;;;;;15.82;72.56;101926.84;5036536;28;20030;-68
2023/05/13 00:10:48;;;;;;;10.70;6.90;;;;;;;15.75;72.15;101928.56;5036326;28;20033;-68
2023/05/13 00:13:13;;;;;;;11.45;6.90;;;;;;;15.69;72.32;101918.75;5036547;28;20216;-67
2023/05/13 00:15:39;;;;;;;10.88;7.25;;;;;;;15.68;72.45;101930.31;5018786;28;20029;-68
2023/05/13 00:18:05;;;;;;;9.40;6.75;;;;;;;15.72;72.38;101926.78;5036404;28;20108;-68
2023/05/13 00:20:30;;;;;;;8.07;6.80;;;;;;;15.69;72.39;101921.41;5036478;28;20025;-67
2023/05/13 00:22:56;;;;;;;11.20;7.43;;;;;;;15.65;72.13;101924.94;5036344;28;20021;-67
2023/05/13 00:25:21;;;;;;;9.23;6.75;;;;;;;15.63;72.32;101923.09;5036378;28;20029;-68
2023/05/13 00:27:47;;;;;;;8.48;6.72;;;;;;;15.58;72.56;101920.41;5036340;28;20027;-68
2023/05/13 00:30:12;;;;;;;9.23;7.00;;;;;;;15.56;72.57;101921.28;5036229;28;20060;-68
2023/05/13 00:32:37;;;;;;;10.18;6.70;;;;;;;15.56;71.99;101918.63;5036061;28;20394;-68
2023/05/13 00:35:03;;;;;;;7.90;6.25;;;;;;;15.50;72.18;101911.47;5018435;28;20040;-67
2023/05/13 00:37:28;;;;;;;8.95;6.65;;;;;;;15.46;71.76;101920.31;5036398;28;20070;-67
2023/05/13 00:39:54;;;;;;;11.10;6.45;;;;;;;15.48;71.92;101921.22;5035922;28;20467;-67
2023/05/13 00:42:19;;;;;;;8.85;6.63;;;;;;;15.43;71.92;101925.63;5035986;28;20084;-67
2023/05/13 00:44:45;;;;;;;7.38;6.53;;;;;;;15.40;72.05;101926.47;5035978;28;20600;-68
2023/05/13 00:47:11;;;;;;;9.93;6.28;;;;;;;15.44;71.61;101925.63;5036277;28;20450;-67
2023/05/13 00:49:36;;;;;;;7.95;6.47;;;;;;;15.36;71.90;101930.00;5036492;28;20134;-67
2023/05/13 00:52:03;;;;;;;11.95;6.70;;;;;;;15.38;72.68;101930.91;5036535;28;20017;-68
2023/05/13 00:54:28;;;;;;;11.77;6.78;;;;;;;15.28;73.01;101926.38;5035938;28;20025;-68
2023/05/13 00:56:55;;;;;;;9.52;7.05;;;;;;;15.23;72.70;101926.34;5034466;28;20042;-68
2023/05/13 00:59:27;;;;;;;11.98;6.93;;;;;;;15.18;72.99;101929.84;5036051;28;20033;-68
2023/05/13 01:02:02;;;;;;;10.73;6.95;;;;;;;15.14;72.99;101928.91;5035758;28;20060;-68
2023/05/13 01:04:53;;;;;;;13.30;7.43;;;;;;;15.12;73.37;101933.34;5035638;28;20033;-67
2023/05/13 01:07:50;;;;;;;11.90;7.15;;;;;;;15.06;73.14;101930.63;5035753;28;20029;-67
2023/05/13 01:10:27;;;;;;;8.48;7.20;;;;;;;15.05;73.25;101928.84;5035236;28;20082;-67
2023/05/13 01:12:59;;;;;;;10.90;6.90;;;;;;;15.06;73.31;101925.28;5035512;28;20037;-67
2023/05/13 01:15:25;;;;;;;11.40;6.68;;;;;;;15.03;72.78;101923.50;5035574;28;20378;-67
2023/05/13 01:18:03;;;;;;;12.43;7.38;;;;;;;14.99;73.55;101923.47;5035628;28;20026;-67
2023/05/13 01:20:29;;;;;;;10.27;7.00;;;;;;;14.85;72.76;101922.41;5035545;28;20025;-67
2023/05/13 01:22:55;;;;;;;11.98;6.90;;;;;;;14.79;73.26;101920.59;5035214;28;20036;-67
2023/05/13 01:25:22;;;;;;;10.02;7.10;;;;;;;14.77;72.95;101925.00;5035458;28;20041;-67
2023/05/13 01:27:48;;;;;;;10.10;6.68;;;;;;;14.77;73.77;101923.25;5035168;28;20021;-68
2023/05/13 01:30:13;;;;;;;10.27;6.80;;;;;;;14.80;73.66;101918.81;5035141;28;20060;-67
2023/05/13 01:32:39;;;;;;;10.15;6.70;;;;;;;14.79;72.89;101928.56;5040743;28;20029;-68
2023/05/13 01:35:06;;;;;;;10.73;6.43;;;;;;;14.77;72.84;101925.00;5054882;28;20493;-67
2023/05/13 01:37:32;;;;;;;10.10;6.53;;;;;;;14.75;72.61;101924.09;5037030;28;20086;-67
2023/05/13 01:39:57;;;;;;;11.25;6.63;;;;;;;14.71;73.38;101916.97;5054833;28;20475;-67
2023/05/13 01:42:24;;;;;;;9.77;6.75;;;;;;;14.62;72.82;101925.72;5036818;28;20024;-68
2023/05/13 01:44:52;;;;;;;15.25;7.07;;;;;;;14.56;73.32;101930.06;5054783;28;20072;-68
2023/05/13 01:47:18;;;;;;;11.43;7.00;;;;;;;14.51;73.13;101927.34;5054738;28;20039;-67
2023/05/13 01:49:43;;;;;;;11.10;7.05;;;;;;;14.45;73.25;101930.81;5054422;28;20414;-68
2023/05/13 01:52:08;;;;;;;7.63;6.82;;;;;;;14.45;73.36;101928.16;5054682;28;20029;-68
2023/05/13 01:54:34;;;;;;;12.82;6.90;;;;;;;14.41;72.95;101923.66;5054489;28;20028;-67
2023/05/13 01:56:59;;;;;;;9.88;6.55;;;;;;;14.40;73.04;101926.31;5037076;28;20029;-67
2023/05/13 01:59:25;;;;;;;11.73;6.15;;;;;;;14.40;73.31;101929.88;5054815;28;20443;-67
2023/05/13 02:01:50;;;;;;;11.63;6.65;;;;;;;14.36;72.73;101921.84;5054433;28;20025;-67
2023/05/13 02:04:16;;;;;;;10.20;6.55;;;;;;;14.35;72.69;101928.94;5054422;28;20027;-67
2023/05/13 02:06:41;;;;;;;9.05;6.32;;;;;;;14.33;72.81;101927.09;5054393;28;20060;-67
2023/05/13 02:09:07;;;;;;;9.18;6.43;;;;;;;14.28;71.81;101932.38;5053808;28;20035;-67
2023/05/13 02:11:32;;;;;;;8.70;6.55;;;;;;;14.27;71.83;101931.47;5054144;28;20437;-68
2023/05/13 02:13:58;;;;;;;7.35;6.35;;;;;;;14.26;71.81;101931.44;5054545;28;20033;-67
2023/05/13 02:16:23;;;;;;;8.43;6.55;;;;;;;14.31;72.16;101934.19;5054370;28;20065;-68
2023/05/13 02:18:49;;;;;;;10.35;6.47;;;;;;;14.25;71.42;101929.66;5054069;28;20488;-67
2023/05/13 02:21:14;;;;;;;8.75;6.32;;;;;;;14.23;72.79;101927.00;5054294;28;20078;-68
2023/05/13 02:23:40;;;;;;;14.40;6.20;;;;;;;14.14;70.80;101933.97;5053988;28;20021;-67
2023/05/13 02:26:05;;;;;;;8.30;6.18;;;;;;;14.15;73.03;101926.00;5054295;28;20025;-67
2023/05/13 02:28:30;;;;;;;9.73;5.97;;;;;;;14.15;70.94;101930.44;5053950;28;20382;-67
2023/05/13 02:30:56;;;;;;;8.80;5.80;;;;;;;14.20;71.47;101931.38;5054114;28;20467;-68
2023/05/13 02:33:21;;;;;;;8.23;6.10;;;;;;;14.20;70.88;101931.38;5053829;28;20024;-67
2023/05/13 02:35:46;;;;;;;7.72;6.50;;;;;;;14.15;70.20;101925.09;5053677;28;20029;-67
2023/05/13 02:38:12;;;;;;;8.60;5.97;;;;;;;14.16;70.35;101929.53;5053580;28;20029;-68
2023/05/13 02:40:37;;;;;;;9.27;5.90;;;;;;;14.14;70.64;101934.84;5053463;28;20382;-68
2023/05/13 02:43:03;;;;;;;13.80;6.50;;;;;;;14.09;70.77;101930.31;5053659;28;20029;-67
2023/05/13 02:45:28;;;;;;;8.07;6.30;;;;;;;14.03;70.83;101933.81;5053982;28;20025;-67
2023/05/13 02:47:54;;;;;;;9.95;6.45;;;;;;;13.99;70.54;101931.97;5053398;28;20053;-67
2023/05/13 02:50:20;;;;;;;11.55;6.63;;;;;;;13.96;70.83;101921.28;5053774;28;20055;-67
2023/05/13 02:52:45;;;;;;;10.55;6.28;;;;;;;13.95;70.92;101915.09;5053442;28;20056;-68
2023/05/13 02:55:11;;;;;;;9.45;6.57;;;;;;;13.90;70.49;101922.09;5053239;28;20021;-67
2023/05/13 02:57:36;;;;;;;11.27;6.35;;;;;;;13.85;70.29;101926.47;5053634;28;20033;-67
2023/05/13 03:00:03;;;;;;;10.48;6.28;;;;;;;13.80;71.20;101925.50;5053612;28;20033;-67
2023/05/13 03:02:29;;;;;;;10.07;6.40;;;;;;;13.77;71.23;101926.34;5053372;28;20478;-67
2023/05/13 03:04:55;;;;;;;11.65;6.53;;;;;;;13.70;71.07;101923.56;5053234;28;20037;-67
2023/05/13 03:07:21;;;;;;;9.48;6.30;;;;;;;13.68;71.59;101923.56;5053271;28;20451;-68
2023/05/13 03:09:46;;;;;;;8.85;6.80;;;;;;;13.66;71.54;101919.06;5053397;28;20025;-67
2023/05/13 03:12:12;;;;;;;10.15;6.53;;;;;;;13.60;71.94;101921.66;5052990;28;20112;-67
2023/05/13 03:14:38;;;;;;;11.75;6.53;;;;;;;13.57;72.06;101922.47;5053018;28;20025;-68
2023/05/13 03:17:07;;;;;;;8.60;6.00;;;;;;;13.57;71.63;101924.25;5053340;28;20036;-67
2023/05/13 03:19:35;;;;;;;9.48;6.32;;;;;;;13.57;71.55;101918.94;5052242;28;20372;-67
2023/05/13 03:22:00;;;;;;;8.48;6.32;;;;;;;13.55;72.17;101916.28;5053113;28;20025;-67
2023/05/13 03:24:26;;;;;;;10.68;6.72;;;;;;;13.50;71.52;101917.97;5052852;28;20021;-67
2023/05/13 03:26:51;;;;;;;10.18;6.43;;;;;;;13.48;71.92;101920.56;5052949;28;20075;-67
2023/05/13 03:29:16;;;;;;;8.77;6.45;;;;;;;13.50;72.25;101925.94;5053266;28;20053;-67
2023/05/13 03:31:42;;;;;;;11.82;6.95;;;;;;;13.50;72.08;101931.25;5053110;28;20036;-67
2023/05/13 03:34:07;;;;;;;9.15;6.55;;;;;;;13.45;72.23;101927.63;5052870;28;20092;-68
2023/05/13 03:36:33;;;;;;;9.50;6.82;;;;;;;13.43;72.10;101929.34;5052764;28;20040;-67
2023/05/13 03:38:58;;;;;;;8.75;6.65;;;;;;;13.41;72.16;101934.63;5052949;28;20052;-67
2023/05/13 03:41:24;;;;;;;12.80;7.00;;;;;;;13.35;71.90;101926.56;5052939;28;20041;-67
2023/05/13 03:43:50;;;;;;;12.18;6.60;;;;;;;13.32;72.27;101926.53;5053067;28;20083;-67
2023/05/13 03:46:15;;;;;;;10.32;6.68;;;;;;;13.28;72.42;101930.88;5032848;28;20035;-67
2023/05/13 03:48:41;;;;;;;8.00;6.63;;;;;;;13.25;72.90;101944.09;5032531;28;20423;-68
2023/05/13 03:51:06;;;;;;;9.48;6.72;;;;;;;13.25;72.79;101943.22;5032948;28;20033;-67
2023/05/13 03:53:31;;;;;;;8.93;7.00;;;;;;;13.24;72.80;101944.97;5032722;28;20033;-67
2023/05/13 03:55:57;;;;;;;14.77;6.95;;;;;;;13.20;73.14;101945.75;5032765;28;20025;-67
2023/05/13 03:58:22;;;;;;;11.00;6.97;;;;;;;13.13;73.42;101937.66;5015057;28;20030;-68
2023/05/13 04:00:48;;;;;;;10.55;7.25;;;;;;;13.14;74.00;101942.06;5032726;28;20028;-67
2023/05/13 04:03:18;;;;;;;9.45;7.45;;;;;;;13.10;74.04;101941.13;5015101;28;20107;-67
2023/05/13 04:05:45;;;;;;;9.27;7.95;;;;;;;13.10;74.12;101943.78;5032740;28;20029;-67
2023/05/13 04:08:11;;;;;;;9.52;7.47;;;;;;;13.02;74.16;101940.13;5032813;28;20025;-67
2023/05/13 04:10:37;;;;;;;9.45;6.93;;;;;;;13.04;74.47;101949.88;5032778;28;20033;-68
2023/05/13 04:13:02;;;;;;;11.27;7.55;;;;;;;12.99;74.44;101940.06;5014940;28;20029;-67
2023/05/13 04:15:28;;;;;;;9.32;7.00;;;;;;;12.96;74.36;101937.34;5032505;28;20116;-67
2023/05/13 04:17:53;;;;;;;9.32;7.22;;;;;;;12.96;75.25;101946.19;5032529;28;20081;-67
2023/05/13 04:20:19;;;;;;;11.48;7.43;;;;;;;12.91;75.41;101941.66;5032796;28;20025;-68
2023/05/13 04:22:44;;;;;;;11.10;7.45;;;;;;;12.94;75.14;101939.97;5032589;28;20479;-67
2023/05/13 04:25:10;;;;;;;13.60;7.90;;;;;;;12.94;75.20;101945.28;5014855;28;20571;-67
2023/05/13 04:27:35;;;;;;;10.85;7.35;;;;;;;12.93;75.40;101945.22;5032491;28;20079;-67
2023/05/13 04:30:01;;;;;;;10.85;7.47;;;;;;;12.97;74.98;101949.72;5014941;28;20033;-67
2023/05/13 04:32:26;;;;;;;11.85;7.32;;;;;;;12.96;74.89;101946.19;5035845;28;20018;-67
2023/05/13 04:34:54;;;;;;;11.65;7.85;;;;;;;12.95;74.91;101957.66;5036089;28;20372;-67
2023/05/13 04:37:19;;;;;;;10.45;7.50;;;;;;;12.93;75.10;101961.16;5036362;28;20018;-67
2023/05/13 04:39:46;;;;;;;13.27;7.93;;;;;;;12.90;75.28;101956.69;5036279;28;20032;-67
2023/05/13 04:42:12;;;;;;;12.80;7.25;;;;;;;12.92;75.68;101957.59;5036470;28;20072;-67
2023/05/13 04:44:37;;;;;;;12.27;7.63;;;;;;;12.97;75.89;101961.22;5018182;28;20390;-67
2023/05/13 04:47:03;;;;;;;9.50;7.88;;;;;;;13.02;75.61;101956.03;5035983;28;20021;-67
2023/05/13 04:49:28;;;;;;;10.38;7.35;;;;;;;13.04;75.86;101959.59;5035740;28;20100;-67
2023/05/13 04:51:53;;;;;;;13.60;7.95;;;;;;;13.09;75.78;101960.56;5036101;28;20111;-67
2023/05/13 04:54:19;;;;;;;11.50;7.75;;;;;;;13.19;75.93;101964.28;5035756;28;20029;-67
2023/05/13 04:56:44;;;;;;;13.07;7.30;;;;;;;13.26;76.28;101958.25;5035816;28;20113;-67
2023/05/13 04:59:10;;;;;;;9.65;7.55;;;;;;;13.31;75.46;101961.88;5035717;28;20025;-67
2023/05/13 05:01:35;;;;;;;11.35;8.13;;;;;;;13.40;76.00;101961.16;5035747;28;20038;-67
2023/05/13 05:04:01;;;;;;;12.13;8.48;;;;;;;13.36;75.82;101960.22;5035607;28;20018;-67
2023/05/13 05:06:27;;;;;;;10.43;8.15;;;;;;;13.32;75.68;101963.69;5035653;28;20053;-67
2023/05/13 05:08:52;;;;;;;13.25;8.02;;;;;;;13.36;75.56;101969.91;5035495;28;20033;-67
2023/05/13 05:11:17;;;;;;;11.32;7.88;;;;;;;13.43;76.38;101966.50;5035659;28;20037;-67
2023/05/13 05:13:43;;;;;;;11.05;7.75;;;;;;;13.53;75.68;101969.38;5035457;28;20025;-67
2023/05/13 05:16:08;;;;;;;12.13;8.40;;;;;;;13.56;75.67;101972.94;5035344;28;20034;-67
2023/05/13 05:18:39;;;;;;;9.48;7.90;;;;;;;13.60;75.38;101969.44;5035364;28;20402;-67
2023/05/13 05:21:05;;;;;;;13.35;8.30;;;;;;;13.66;76.00;101980.16;5035354;28;20163;-67
2023/05/13 05:23:31;;;;;;;11.63;7.97;;;;;;;13.80;76.84;101975.09;5035142;28;20073;-66
2023/05/13 05:25:58;;;;;;;10.73;7.97;;;;;;;13.83;74.65;101978.66;5035190;28;20037;-66
2023/05/13 05:28:23;;;;;;;12.23;8.75;;;;;;;13.88;75.10;101982.31;5035106;28;20520;-67
2023/05/13 05:30:49;;;;;;;11.55;8.23;;;;;;;13.96;75.03;101983.31;5035416;28;20096;-67
2023/05/13 05:33:15;;;;;;;13.13;8.60;;;;;;;14.11;74.95;101992.38;5035018;28;20475;-67
2023/05/13 05:35:40;;;;;;;11.25;8.60;;;;;;;14.17;74.52;101982.72;5034938;28;20068;-67
2023/05/13 05:38:06;;;;;;;13.05;8.60;;;;;;;14.22;74.01;101991.69;5035164;28;20120;-67
2023/05/13 05:40:33;;;;;;;13.55;7.88;;;;;;;14.21;74.42;101989.88;5016912;28;20026;-67
2023/05/13 05:42:59;;;;;;;11.00;8.85;;;;;;;14.24;74.51;101989.03;5034217;28;20030;-67
2023/05/13 05:45:24;;;;;;;9.90;8.60;;;;;;;14.34;73.97;101995.34;5034818;28;20037;-67
2023/05/13 05:47:49;;;;;;;10.63;8.35;;;;;;;14.46;73.99;101992.88;5034674;28;20055;-66
2023/05/13 05:50:15;;;;;;;13.75;8.60;;;;;;;14.54;74.12;101991.25;5034828;28;20438;-67
2023/05/13 05:52:40;;;;;;;11.25;8.40;;;;;;;14.71;74.01;101994.09;5034673;28;20084;-67
2023/05/13 05:55:06;;;;;;;15.50;8.65;;;;;;;14.89;73.32;102002.31;5034497;28;20025;-67
2023/05/13 05:57:32;;;;;;;14.93;8.90;;;;;;;15.03;73.30;102000.72;5034582;28;20022;-67
2023/05/13 05:59:57;;;;;;;12.00;9.00;;;;;;;15.15;72.44;102001.69;5034611;28;20033;-67
2023/05/13 06:02:22;;;;;;;11.05;8.85;;;;;;;15.16;72.61;102007.06;5034497;28;20083;-67
2023/05/13 06:04:48;;;;;;;13.23;9.00;;;;;;;15.06;71.71;102012.25;5034785;28;20079;-66
2023/05/13 06:07:13;;;;;;;14.70;9.45;;;;;;;14.90;72.90;102006.78;5034371;28;20034;-67
2023/05/13 06:09:39;;;;;;;13.43;9.50;;;;;;;14.85;72.90;102003.13;5034238;28;20032;-67
2023/05/13 06:12:05;;;;;;;10.70;8.82;;;;;;;14.94;73.33;101999.69;5034489;28;20098;-67
2023/05/13 06:14:30;;;;;;;13.27;9.65;;;;;;;14.96;72.69;101996.19;5034535;28;20481;-67
2023/05/13 06:16:55;;;;;;;12.82;9.52;;;;;;;14.92;73.18;102005.00;5016676;28;20030;-67
2023/05/13 06:19:21;;;;;;;14.68;9.45;;;;;;;14.96;73.24;102005.94;5034546;28;20040;-67
2023/05/13 06:21:47;;;;;;;14.02;9.23;;;;;;;14.87;72.87;102006.72;5034147;28;20064;-67
2023/05/13 06:24:12;;;;;;;13.73;9.77;;;;;;;14.97;73.73;102013.94;5033970;28;20506;-67
2023/05/13 06:26:38;;;;;;;15.90;9.70;;;;;;;14.94;72.89;102008.56;5034093;28;20026;-67
2023/05/13 06:29:03;;;;;;;12.30;9.15;;;;;;;14.86;73.05;102006.69;5034098;28;20140;-67
2023/05/13 06:31:29;;;;;;;12.23;9.20;;;;;;;14.80;73.96;102009.28;5033982;28;20029;-67
2023/05/13 06:33:54;;;;;;;15.60;9.38;;;;;;;15.01;74.04;102017.53;5033925;28;20439;-67
2023/05/13 06:36:19;;;;;;;13.35;10.07;;;;;;;15.29;74.05;102016.06;5033828;28;20061;-67
2023/05/13 06:38:45;;;;;;;13.85;9.30;;;;;;;15.54;72.97;102011.84;5033899;28;20033;-66
2023/05/13 06:41:10;;;;;;;14.00;10.20;;;;;;;15.83;73.47;102014.78;5033826;28;20037;-67
2023/05/13 06:43:35;;;;;;;15.57;10.32;;;;;;;16.07;72.52;102019.41;5033583;28;20426;-66
2023/05/13 06:46:01;;;;;;;14.93;9.45;;;;;;;16.11;71.96;102020.34;5033626;28;20038;-67
2023/05/13 06:48:26;;;;;;;13.95;9.82;;;;;;;16.13;71.38;102019.44;5033450;28;20521;-67
2023/05/13 06:50:52;;;;;;;18.27;10.40;;;;;;;16.26;72.22;102015.97;5033538;28;20109;-67
2023/05/13 06:53:17;;;;;;;13.77;9.48;;;;;;;16.46;71.30;102020.53;5033740;28;20037;-67
2023/05/13 06:55:42;;;;;;;14.63;10.15;;;;;;;16.51;69.94;102024.13;5033555;28;20387;-66
2023/05/13 06:58:09;;;;;;;15.25;10.00;;;;;;;16.49;70.62;102021.47;5033612;28;20411;-66
2023/05/13 07:00:39;;;;;;;13.35;10.25;;;;;;;16.38;70.05;102020.50;5033624;28;20100;-67
2023/05/13 07:03:05;;;;;;;14.60;9.82;;;;;;;16.34;70.38;102025.81;5033565;28;20072;-67
2023/05/13 07:05:34;;;;;;;14.25;9.85;;;;;;;16.17;70.15;102026.59;5033544;28;20037;-67
2023/05/13 07:08:05;;;;;;;12.65;9.73;;;;;;;16.09;70.36;102020.31;5033565;28;20087;-67
2023/05/13 07:10:31;;;;;;;14.50;10.20;;;;;;;16.04;71.07;102019.38;5032989;28;20124;-66
2023/05/13 07:12:57;;;;;;;13.38;9.95;;;;;;;16.30;72.42;102019.56;5033454;28;20126;-67
2023/05/13 07:15:23;;;;;;;16.88;10.30;;;;;;;16.37;70.22;102020.50;5033090;28;20128;-67
2023/05/13 07:17:48;;;;;;;16.15;10.07;;;;;;;16.35;70.79;102015.13;5033380;28;20103;-67
2023/05/13 07:20:14;;;;;;;13.60;8.80;;;;;;;16.62;71.40;102017.06;5033106;28;20080;-67
2023/05/13 07:22:39;;;;;;;13.25;10.32;;;;;;;16.80;70.59;102018.06;5033101;28;20368;-67
2023/05/13 07:25:05;;;;;;;13.50;10.02;;;;;;;17.08;70.05;102011.03;5033061;28;20037;-66
2023/05/13 07:27:31;;;;;;;16.08;9.48;;;;;;;17.45;68.82;102012.88;5015821;28;20435;-67
2023/05/13 07:29:56;;;;;;;12.10;10.10;;;;;;;17.82;68.78;102007.59;5033062;28;20065;-66
2023/05/13 07:32:22;;;;;;;11.00;9.52;;;;;;;18.20;65.97;102015.56;5033234;28;20063;-66
2023/05/13 07:34:47;;;;;;;13.05;9.30;;;;;;;18.48;65.08;102015.47;5032818;28;20037;-67
2023/05/13 07:37:12;;;;;;;16.10;9.27;;;;;;;18.80;63.48;102012.72;5032994;28;20026;-67
2023/05/13 07:39:38;;;;;;;12.77;9.30;;;;;;;19.05;61.50;102024.16;5032957;28;20463;-66
2023/05/13 07:42:03;;;;;;;17.33;9.00;;;;;;;19.29;61.36;102022.25;5033004;28;20029;-66
2023/05/13 07:44:29;;;;;;;16.17;8.90;;;;;;;19.44;60.13;102017.69;5032977;28;20029;-66
2023/05/13 07:46:54;;;;;;;12.77;9.18;;;;;;;19.62;59.89;102018.50;5033041;28;20068;-66
2023/05/13 07:49:20;;;;;;;12.00;8.75;;;;;;;19.81;60.67;102020.09;5032623;28;20057;-66
2023/05/13 07:51:46;;;;;;;11.90;9.25;;;;;;;19.76;58.44;102020.13;5033123;28;20111;-67
2023/05/13 07:54:11;;;;;;;14.13;8.25;;;;;;;19.79;59.32;102024.59;5015295;28;20042;-67
2023/05/13 07:56:37;;;;;;;11.73;8.85;;;;;;;19.78;59.69;102017.44;5032800;28;20030;-66
2023/05/13 07:59:03;;;;;;;12.57;8.95;;;;;;;19.68;57.99;102022.00;5032821;28;20026;-66
2023/05/13 08:01:28;;;;;;;15.18;8.82;;;;;;;19.85;57.64;102024.53;5032779;28;20033;-66
2023/05/13 08:03:54;;;;;;;12.88;9.15;;;;;;;19.89;58.56;102017.34;5032808;28;20125;-66
2023/05/13 08:06:19;;;;;;;15.85;9.15;;;;;;;20.04;57.85;102022.56;5034495;28;20034;-66
2023/05/13 08:08:45;;;;;;;12.20;9.05;;;;;;;20.25;57.76;102019.66;5018914;28;20072;-66
2023/05/13 08:11:10;;;;;;;13.02;9.15;;;;;;;20.22;57.02;102025.09;5036550;28;20032;-67
2023/05/13 08:13:37;;;;;;;13.32;9.10;;;;;;;20.22;56.23;102022.41;5018888;28;20490;-66
2023/05/13 08:16:02;;;;;;;14.45;9.07;;;;;;;20.49;57.51;102031.97;5036711;28;20040;-65
2023/05/13 08:18:28;;;;;;;15.23;9.73;;;;;;;20.46;55.62;102034.66;5036753;28;20026;-67
2023/05/13 08:20:54;;;;;;;13.82;9.02;;;;;;;20.39;56.87;102027.59;5036360;28;20026;-66
2023/05/13 08:23:19;;;;;;;13.85;9.95;;;;;;;20.34;57.01;102032.13;5018952;28;20112;-66
2023/05/13 08:25:45;;;;;;;11.75;8.75;;;;;;;20.48;57.75;102023.94;5036321;28;20056;-67
2023/05/13 08:28:10;;;;;;;11.00;9.02;;;;;;;20.67;57.43;102030.84;5036316;28;20112;-66
2023/05/13 08:30:35;;;;;;;11.70;9.50;;;;;;;21.02;57.61;102025.00;5036339;28;20022;-67
2023/05/13 08:33:01;;;;;;;14.85;9.73;;;;;;;21.36;55.15;102031.75;5036141;28;20022;-66
2023/05/13 08:35:26;;;;;;;11.98;9.70;;;;;;;21.60;53.75;102027.81;5036353;28;20421;-67
2023/05/13 08:37:52;;;;;;;11.60;8.85;;;;;;;21.60;53.55;102026.00;5036080;28;20030;-66
2023/05/13 08:40:17;;;;;;;11.18;9.23;;;;;;;21.80;54.12;102027.44;5036254;28;20030;-67
2023/05/13 08:42:46;;;;;;;15.80;8.88;;;;;;;21.97;52.62;102030.78;5035823;28;20053;-67
2023/05/13 08:45:12;;;;;;;14.13;9.27;;;;;;;22.00;53.75;102023.50;5036046;28;20026;-66
2023/05/13 08:47:46;;;;;;;14.98;9.95;;;;;;;22.25;53.02;102021.28;5035933;28;20029;-66
2023/05/13 08:50:12;;;;;;;15.98;9.68;;;;;;;22.37;52.40;102021.97;5035819;28;20046;-66
2023/05/13 08:52:38;;;;;;;13.45;8.82;;;;;;;22.78;52.58;102017.53;5036039;28;20110;-66
2023/05/13 08:55:04;;;;;;;12.57;9.07;;;;;;;22.93;52.55;102026.22;5035587;28;20034;-65
2023/05/13 08:57:30;;;;;;;14.55;8.65;;;;;;;23.28;51.43;102026.34;5035695;28;20026;-66
2023/05/13 08:59:55;;;;;;;12.50;9.45;;;;;;;23.39;50.80;102022.47;5035830;28;20048;-66
2023/05/13 09:02:21;;;;;;;14.23;9.00;;;;;;;23.35;48.47;102026.19;5035697;28;20056;-65
2023/05/13 09:04:51;;;;;;;14.43;8.60;;;;;;;23.64;50.18;102020.09;5035680;28;20030;-66
2023/05/13 09:07:17;;;;;;;12.70;8.48;;;;;;;23.71;49.43;102010.91;5035889;28;20029;-66
2023/05/13 09:09:43;;;;;;;15.13;9.13;;;;;;;23.78;49.25;102013.47;5035422;28;20523;-65
2023/05/13 09:12:08;;;;;;;9.48;7.55;;;;;;;24.04;48.76;102012.78;5035410;28;20025;-66
2023/05/13 09:14:36;;;;;;;10.05;8.60;;;;;;;24.09;48.96;102008.16;5035433;28;20441;-66
2023/05/13 09:17:01;;;;;;;12.05;9.00;;;;;;;24.26;48.46;102007.69;5034732;28;20040;-66
2023/05/13 09:19:27;;;;;;;13.40;8.52;;;;;;;24.54;47.73;102013.22;5035364;28;20025;-66
2023/05/13 09:21:53;;;;;;;10.95;8.18;;;;;;;24.74;48.08;102003.59;5035418;28;20021;-65
2023/05/13 09:24:20;;;;;;;14.85;8.55;;;;;;;24.73;45.97;102009.94;5035482;28;20052;-65
2023/05/13 09:26:50;;;;;;;10.80;8.00;;;;;;;24.77;47.01;102005.34;5035383;28;20029;-66
2023/05/13 09:29:21;;;;;;;9.90;8.75;;;;;;;24.99;46.44;102006.44;5035184;28;20486;-66
2023/05/13 09:31:53;;;;;;;11.13;8.43;;;;;;;25.13;46.11;101997.94;5035439;28;20115;-66
2023/05/13 09:34:28;;;;;;;14.85;8.88;;;;;;;25.23;45.23;102004.84;5035383;28;20272;-66
2023/05/13 09:37:07;;;;;;;13.60;8.75;;;;;;;25.27;46.63;102000.22;5034953;28;20021;-65
2023/05/13 09:39:40;;;;;;;11.10;8.73;;;;;;;25.27;45.56;101997.50;5034916;28;20033;-66
2023/05/13 09:42:14;;;;;;;11.63;8.45;;;;;;;25.44;45.95;101995.13;5034911;28;20030;-66
2023/05/13 09:44:41;;;;;;;13.68;8.38;;;;;;;25.56;45.50;101987.53;5034925;28;20041;-66
2023/05/13 09:47:10;;;;;;;16.58;8.13;;;;;;;25.85;44.81;101986.56;5034863;28;20033;-65
2023/05/13 09:49:36;;;;;;;13.43;7.90;;;;;;;25.96;43.32;101984.38;5034623;28;20453;-67
2023/05/13 09:52:01;;;;;;;12.68;7.75;;;;;;;26.31;42.82;101993.94;5035002;28;20029;-65
2023/05/13 09:54:33;;;;;;;13.30;7.60;;;;;;;26.41;43.57;101981.81;5034613;28;20400;-67
2023/05/13 09:57:00;;;;;;;10.70;7.50;;;;;;;26.60;42.79;101990.19;5034935;28;20071;-66
2023/05/13 09:59:25;;;;;;;12.82;7.32;;;;;;;26.85;42.39;101987.41;5034591;28;20037;-67
2023/05/13 10:01:53;;;;;;;13.73;7.53;;;;;;;26.78;41.09;101990.41;5034875;28;20017;-66
2023/05/13 10:04:19;;;;;;;11.93;7.05;;;;;;;26.99;41.94;101980.56;5034750;28;20091;-66
2023/05/13 10:06:47;;;;;;;11.45;6.70;;;;;;;27.20;38.59;101977.88;5034488;28;20486;-65
2023/05/13 10:09:15;;;;;;;11.13;6.90;;;;;;;27.31;40.61;101974.72;5034399;28;20057;-66
2023/05/13 10:11:45;;;;;;;10.88;6.82;;;;;;;27.31;38.98;101976.56;5034386;28;20018;-66
2023/05/13 10:14:12;;;;;;;13.50;7.40;;;;;;;27.32;40.05;101972.88;5034339;28;20033;-66
2023/05/13 10:16:37;;;;;;;10.50;6.13;;;;;;;27.69;38.94;101967.66;5034226;28;20037;-67
2023/05/13 10:19:03;;;;;;;9.57;6.28;;;;;;;27.67;38.33;101961.44;5034244;28;20029;-66
2023/05/13 10:21:31;;;;;;;11.60;6.28;;;;;;;27.78;38.37;101969.13;5034233;28;20029;-66
2023/05/13 10:23:57;;;;;;;10.63;6.60;;;;;;;27.99;35.97;101963.72;5034326;28;20060;-66
2023/05/13 10:26:24;;;;;;;9.13;6.22;;;;;;;27.94;36.56;101966.63;5034047;28;20026;-66
2023/05/13 10:28:49;;;;;;;8.98;6.40;;;;;;;27.97;37.21;101969.22;5034042;28;20022;-66
2023/05/13 10:31:16;;;;;;;12.27;6.13;;;;;;;27.97;37.46;101962.91;5034256;28;20071;-66
2023/05/13 10:33:42;;;;;;;8.23;5.40;;;;;;;28.39;37.09;101968.25;5033820;28;20037;-66
2023/05/13 10:36:32;;;;;;;9.02;5.70;;;;;;;28.63;37.05;101961.69;5033818;28;20033;-66
2023/05/13 10:39:09;;;;;;;7.05;5.20;;;;;;;28.38;37.52;101951.06;5033835;28;20025;-66
2023/05/13 10:42:06;;;;;;;9.35;4.80;;;;;;;28.56;33.37;101956.59;5033714;28;20121;-65
2023/05/13 10:44:34;;;;;;;7.00;4.38;;;;;;;28.41;33.72;101953.66;5033650;28;20029;-67
2023/05/13 10:47:01;;;;;;;11.50;4.43;;;;;;;28.22;33.04;101947.25;5033717;28;20038;-66
2023/05/13 10:49:33;;;;;;;7.20;4.13;;;;;;;28.57;31.53;101947.50;5033445;28;20041;-66
2023/05/13 10:52:12;;;;;;;7.10;4.57;;;;;;;28.42;34.27;101946.38;5033657;28;20125;-67
2023/05/13 10:54:40;;;;;;;7.90;4.45;;;;;;;28.54;29.59;101942.19;5033601;28;20390;-65
2023/05/13 10:57:07;;;;;;;8.27;4.63;;;;;;;28.47;30.62;101946.16;5033362;28;20037;-65
2023/05/13 10:59:34;;;;;;;7.38;4.50;;;;;;;28.65;31.35;101948.91;5033750;28;20025;-66
2023/05/13 11:02:01;;;;;;;10.50;4.45;;;;;;;29.13;28.90;101947.50;5033700;28;20030;-67
2023/05/13 11:04:26;;;;;;;12.10;4.32;;;;;;;29.28;30.59;101940.41;5034245;28;20018;-66
2023/05/13 11:06:52;;;;;;;7.43;3.78;;;;;;;29.18;29.77;101947.28;5035632;28;20075;-67
2023/05/13 11:09:20;;;;;;;6.53;4.00;;;;;;;28.89;30.06;101951.38;5034406;28;20021;-66
2023/05/13 11:11:47;;;;;;;8.02;3.97;;;;;;;28.92;29.39;101940.38;5033311;28;20044;-65
2023/05/13 11:14:21;;;;;;;7.60;3.90;;;;;;;28.90;31.06;101944.97;5033262;28;20029;-65
2023/05/13 11:16:55;;;;;;;10.13;3.70;;;;;;;29.09;30.92;101936.84;5033161;28;20034;-66